sensor_id;sensor_type;location;lat;lon;timestamp;pressure;altitude;pressure_sealevel;temperature;humidity
28630;BME280;15817;42.130;24.762;2023-02-28T00:00:40;100389.81;;;12.51;79.06
28630;BME280;15817;42.130;24.762;2023-02-28T00:03:09;100384.53;;;12.39;79.32
28630;BME280;15817;42.130;24.762;2023-02-28T00:05:44;100389.88;;;12.43;79.21
28630;BME280;15817;42.130;24.762;2023-02-28T00:08:12;100394.31;;;12.46;79.08
28630;BME280;15817;42.130;24.762;2023-02-28T00:11:12;100388.97;;;12.38;79.48
28630;BME280;15817;42.130;24.762;2023-02-28T00:13:57;100386.31;;;12.41;79.12
28630;BME280;15817;42.130;24.762;2023-02-28T00:16:23;100389.84;;;12.45;78.94
28630;BME280;15817;42.130;24.762;2023-02-28T00:18:50;100395.19;;;12.45;78.91
28630;BME280;15817;42.130;24.762;2023-02-28T00:21:16;100392.53;;;12.40;78.96
28630;BME280;15817;42.130;24.762;2023-02-28T00:23:43;100396.09;;;12.44;79.09
28630;BME280;15817;42.130;24.762;2023-02-28T00:26:09;100398.75;;;12.44;79.00
28630;BME280;15817;42.130;24.762;2023-02-28T00:28:36;100404.94;;;12.47;78.81
28630;BME280;15817;42.130;24.762;2023-02-28T00:31:04;100384.53;;;12.40;78.93
28630;BME280;15817;42.130;24.762;2023-02-28T00:33:38;100390.75;;;12.44;79.09
28630;BME280;15817;42.130;24.762;2023-02-28T00:36:06;100383.63;;;12.40;79.23
28630;BME280;15817;42.130;24.762;2023-02-28T00:38:38;100374.75;;;12.39;79.39
28630;BME280;15817;42.130;24.762;2023-02-28T00:41:05;100377.41;;;12.39;79.49
28630;BME280;15817;42.130;24.762;2023-02-28T00:43:33;100388.97;;;12.40;79.79
28630;BME280;15817;42.130;24.762;2023-02-28T00:45:59;100385.44;;;12.34;79.74
28630;BME280;15817;42.130;24.762;2023-02-28T00:48:25;100384.59;;;12.32;79.86
28630;BME280;15817;42.130;24.762;2023-02-28T00:50:53;100402.38;;;12.33;80.26
28630;BME280;15817;42.130;24.762;2023-02-28T00:53:19;100386.38;;;12.26;80.14
28630;BME280;15817;42.130;24.762;2023-02-28T00:55:49;100378.38;;;12.29;80.12
28630;BME280;15817;42.130;24.762;2023-02-28T00:58:18;100383.72;;;12.24;80.25
28630;BME280;15817;42.130;24.762;2023-02-28T01:00:47;100388.19;;;12.21;80.35
28630;BME280;15817;42.130;24.762;2023-02-28T01:03:17;100396.19;;;12.19;80.47
28630;BME280;15817;42.130;24.762;2023-02-28T01:05:43;100405.97;;;12.19;80.80
28630;BME280;15817;42.130;24.762;2023-02-28T01:08:15;100408.63;;;12.14;81.05
28630;BME280;15817;42.130;24.762;2023-02-28T01:11:10;100403.34;;;12.11;81.05
28630;BME280;15817;42.130;24.762;2023-02-28T01:13:37;100419.31;;;12.19;80.98
28630;BME280;15817;42.130;24.762;2023-02-28T01:16:03;100416.69;;;12.11;80.80
28630;BME280;15817;42.130;24.762;2023-02-28T01:18:35;100414.00;;;12.08;81.19
28630;BME280;15817;42.130;24.762;2023-02-28T01:21:06;100422.88;;;12.12;81.13
28630;BME280;15817;42.130;24.762;2023-02-28T01:23:35;100430.88;;;12.13;81.24
28630;BME280;15817;42.130;24.762;2023-02-28T01:26:19;100426.47;;;12.05;81.42
28630;BME280;15817;42.130;24.762;2023-02-28T01:28:45;100425.56;;;12.04;81.52
28630;BME280;15817;42.130;24.762;2023-02-28T01:31:14;100418.47;;;12.05;81.41
28630;BME280;15817;42.130;24.762;2023-02-28T01:33:44;100413.13;;;12.00;81.37
28630;BME280;15817;42.130;24.762;2023-02-28T01:36:15;100426.47;;;12.03;81.55
28630;BME280;15817;42.130;24.762;2023-02-28T01:38:42;100432.72;;;11.98;82.00
28630;BME280;15817;42.130;24.762;2023-02-28T01:41:08;100429.16;;;11.94;81.77
28630;BME280;15817;42.130;24.762;2023-02-28T01:46:17;100454.03;;;11.96;82.10
28630;BME280;15817;42.130;24.762;2023-02-28T01:54:01;100466.50;;;11.48;79.41
28630;BME280;15817;42.130;24.762;2023-02-28T01:56:33;100466.50;;;11.50;79.11
28630;BME280;15817;42.130;24.762;2023-02-28T01:59:04;100463.81;;;11.24;78.92
28630;BME280;15817;42.130;24.762;2023-02-28T02:01:30;100479.78;;;11.12;79.93
28630;BME280;15817;42.130;24.762;2023-02-28T02:04:02;100480.66;;;11.15;80.23
28630;BME280;15817;42.130;24.762;2023-02-28T02:06:43;100484.22;;;11.25;80.11
28630;BME280;15817;42.130;24.762;2023-02-28T02:09:15;100490.47;;;11.39;80.12
28630;BME280;15817;42.130;24.762;2023-02-28T02:11:43;100498.44;;;11.47;80.25
28630;BME280;15817;42.130;24.762;2023-02-28T02:22:52;100495.78;;;11.35;80.83
28630;BME280;15817;42.130;24.762;2023-02-28T02:25:29;100491.34;;;11.35;80.83
28630;BME280;15817;42.130;24.762;2023-02-28T02:28:22;100490.44;;;11.27;81.00
28630;BME280;15817;42.130;24.762;2023-02-28T02:36:32;100498.44;;;11.36;82.46
28630;BME280;15817;42.130;24.762;2023-02-28T02:39:02;100517.97;;;11.46;83.02
28630;BME280;15817;42.130;24.762;2023-02-28T02:41:43;100511.75;;;11.38;83.94
28630;BME280;15817;42.130;24.762;2023-02-28T02:44:21;100514.44;;;11.50;84.01
28630;BME280;15817;42.130;24.762;2023-02-28T02:46:51;100502.88;;;11.43;84.01
28630;BME280;15817;42.130;24.762;2023-02-28T02:49:26;100503.75;;;11.42;84.89
28630;BME280;15817;42.130;24.762;2023-02-28T02:51:55;100508.19;;;11.33;86.41
28630;BME280;15817;42.130;24.762;2023-02-28T02:54:27;100512.66;;;11.31;87.56
28630;BME280;15817;42.130;24.762;2023-02-28T02:56:57;100514.41;;;11.29;88.42
28630;BME280;15817;42.130;24.762;2023-02-28T02:59:28;100521.50;;;11.33;88.24
28630;BME280;15817;42.130;24.762;2023-02-28T03:02:04;100527.72;;;11.33;87.66
28630;BME280;15817;42.130;24.762;2023-02-28T03:04:46;100541.03;;;11.25;87.61
28630;BME280;15817;42.130;24.762;2023-02-28T03:07:16;100533.03;;;11.22;88.51
28630;BME280;15817;42.130;24.762;2023-02-28T03:09:54;100544.59;;;11.28;89.17
28630;BME280;15817;42.130;24.762;2023-02-28T03:12:24;100533.06;;;11.29;89.17
28630;BME280;15817;42.130;24.762;2023-02-28T03:23:08;100557.03;;;11.33;91.02
28630;BME280;15817;42.130;24.762;2023-02-28T03:25:56;100562.34;;;11.27;92.50
28630;BME280;15817;42.130;24.762;2023-02-28T03:28:40;100554.34;;;11.18;93.05
28630;BME280;15817;42.130;24.762;2023-02-28T03:34:04;100568.53;;;11.20;94.75
28630;BME280;15817;42.130;24.762;2023-02-28T03:36:41;100566.75;;;11.22;95.09
28630;BME280;15817;42.130;24.762;2023-02-28T03:39:23;100546.34;;;11.13;95.78
28630;BME280;15817;42.130;24.762;2023-02-28T03:44:42;100564.03;;;10.98;98.82
28630;BME280;15817;42.130;24.762;2023-02-28T03:47:43;100569.34;;;10.96;99.54
28630;BME280;15817;42.130;24.762;2023-02-28T03:53:00;100564.03;;;11.01;98.97
28630;BME280;15817;42.130;24.762;2023-02-28T03:55:41;100578.28;;;11.07;98.88
28630;BME280;15817;42.130;24.762;2023-02-28T04:01:16;100580.94;;;11.13;98.20
28630;BME280;15817;42.130;24.762;2023-02-28T04:04:13;100587.16;;;11.14;98.18
28630;BME280;15817;42.130;24.762;2023-02-28T04:07:09;100583.56;;;11.09;98.53
28630;BME280;15817;42.130;24.762;2023-02-28T04:09:39;100596.00;;;11.05;98.80
28630;BME280;15817;42.130;24.762;2023-02-28T04:12:08;100604.84;;;10.94;99.62
28630;BME280;15817;42.130;24.762;2023-02-28T04:14:34;100614.56;;;10.84;99.76
28630;BME280;15817;42.130;24.762;2023-02-28T04:17:12;100613.66;;;10.88;99.71
28630;BME280;15817;42.130;24.762;2023-02-28T04:19:37;100607.44;;;10.83;99.63
28630;BME280;15817;42.130;24.762;2023-02-28T04:22:03;100618.94;;;10.77;100.00
28630;BME280;15817;42.130;24.762;2023-02-28T04:24:29;100615.34;;;10.74;99.71
28630;BME280;15817;42.130;24.762;2023-02-28T04:27:03;100618.94;;;10.77;99.90
28630;BME280;15817;42.130;24.762;2023-02-28T04:29:31;100621.59;;;10.79;99.71
28630;BME280;15817;42.130;24.762;2023-02-28T04:32:05;100610.06;;;10.72;99.97
28630;BME280;15817;42.130;24.762;2023-02-28T04:34:34;100611.81;;;10.72;99.89
28630;BME280;15817;42.130;24.762;2023-02-28T04:37:02;100619.00;;;10.88;99.24
28630;BME280;15817;42.130;24.762;2023-02-28T04:39:29;100608.31;;;10.79;98.88
28630;BME280;15817;42.130;24.762;2023-02-28T04:41:59;100615.44;;;10.83;98.73
28630;BME280;15817;42.130;24.762;2023-02-28T04:44:25;100609.19;;;10.79;98.70
28630;BME280;15817;42.130;24.762;2023-02-28T04:46:51;100617.22;;;10.87;98.31
28630;BME280;15817;42.130;24.762;2023-02-28T04:49:20;100625.19;;;10.85;98.18
28630;BME280;15817;42.130;24.762;2023-02-28T04:51:57;100618.97;;;10.80;98.53
28630;BME280;15817;42.130;24.762;2023-02-28T04:54:23;100619.88;;;10.82;98.50
28630;BME280;15817;42.130;24.762;2023-02-28T04:56:53;100610.94;;;10.73;98.75
28630;BME280;15817;42.130;24.762;2023-02-28T04:59:20;100616.31;;;10.80;98.45
28630;BME280;15817;42.130;24.762;2023-02-28T05:01:49;100618.09;;;10.81;98.15
28630;BME280;15817;42.130;24.762;2023-02-28T05:04:26;100632.28;;;10.83;98.10
28630;BME280;15817;42.130;24.762;2023-02-28T05:06:57;100644.69;;;10.81;97.86
28630;BME280;15817;42.130;24.762;2023-02-28T05:09:39;100648.19;;;10.71;98.04
28630;BME280;15817;42.130;24.762;2023-02-28T05:12:37;100646.38;;;10.69;98.54
28630;BME280;15817;42.130;24.762;2023-02-28T05:15:04;100663.34;;;10.84;97.90
28630;BME280;15817;42.130;24.762;2023-02-28T05:17:31;100643.81;;;10.81;97.29
28630;BME280;15817;42.130;24.762;2023-02-28T05:19:56;100659.78;;;10.82;97.01
28630;BME280;15817;42.130;24.762;2023-02-28T05:22:25;100644.63;;;10.69;97.20
28630;BME280;15817;42.130;24.762;2023-02-28T05:24:51;100659.63;;;10.63;98.17
28630;BME280;15817;42.130;24.762;2023-02-28T05:27:22;100651.69;;;10.61;98.31
28630;BME280;15817;42.130;24.762;2023-02-28T05:29:48;100663.25;;;10.71;97.93
28630;BME280;15817;42.130;24.762;2023-02-28T05:32:14;100673.00;;;10.69;97.85
28630;BME280;15817;42.130;24.762;2023-02-28T05:34:45;100672.91;;;10.55;98.12
28630;BME280;15817;42.130;24.762;2023-02-28T05:37:29;100679.97;;;10.55;98.54
28630;BME280;15817;42.130;24.762;2023-02-28T05:39:57;100671.06;;;10.46;98.58
28630;BME280;15817;42.130;24.762;2023-02-28T05:42:23;100678.19;;;10.53;98.32
28630;BME280;15817;42.130;24.762;2023-02-28T05:45:01;100684.41;;;10.52;98.01
28630;BME280;15817;42.130;24.762;2023-02-28T05:47:33;100680.91;;;10.58;97.97
28630;BME280;15817;42.130;24.762;2023-02-28T05:49:59;100682.69;;;10.64;96.94
28630;BME280;15817;42.130;24.762;2023-02-28T05:52:29;100689.84;;;10.68;96.68
28630;BME280;15817;42.130;24.762;2023-02-28T05:55:03;100704.06;;;10.71;96.86
28630;BME280;15817;42.130;24.762;2023-02-28T05:57:42;100689.00;;;10.72;96.58
28630;BME280;15817;42.130;24.762;2023-02-28T06:00:22;100691.63;;;10.73;96.34
28630;BME280;15817;42.130;24.762;2023-02-28T06:02:48;100699.66;;;10.79;96.16
28630;BME280;15817;42.130;24.762;2023-02-28T06:05:17;100708.56;;;10.86;95.92
28630;BME280;15817;42.130;24.762;2023-02-28T06:07:50;100710.28;;;10.75;96.24
28630;BME280;15817;42.130;24.762;2023-02-28T06:10:16;100704.97;;;10.72;96.22
28630;BME280;15817;42.130;24.762;2023-02-28T06:12:42;100709.38;;;10.74;96.41
28630;BME280;15817;42.130;24.762;2023-02-28T06:15:13;100718.25;;;10.76;96.31
28630;BME280;15817;42.130;24.762;2023-02-28T06:17:49;100705.84;;;10.77;96.23
28630;BME280;15817;42.130;24.762;2023-02-28T06:20:28;100725.41;;;10.80;96.71
28630;BME280;15817;42.130;24.762;2023-02-28T06:26:42;100708.50;;;10.71;96.74
28630;BME280;15817;42.130;24.762;2023-02-28T06:29:11;100722.72;;;10.77;96.94
28630;BME280;15817;42.130;24.762;2023-02-28T06:31:39;100710.22;;;10.66;96.93
28630;BME280;15817;42.130;24.762;2023-02-28T06:34:08;100705.75;;;10.63;96.87
28630;BME280;15817;42.130;24.762;2023-02-28T06:36:38;100724.41;;;10.66;97.50
28630;BME280;15817;42.130;24.762;2023-02-28T06:39:07;100719.94;;;10.62;97.67
28630;BME280;15817;42.130;24.762;2023-02-28T06:41:36;100718.19;;;10.66;97.37
28630;BME280;15817;42.130;24.762;2023-02-28T06:44:14;100720.03;;;10.73;97.12
28630;BME280;15817;42.130;24.762;2023-02-28T06:46:48;100722.66;;;10.68;97.20
28630;BME280;15817;42.130;24.762;2023-02-28T06:49:22;100723.53;;;10.67;97.56
28630;BME280;15817;42.130;24.762;2023-02-28T06:52:02;100712.91;;;10.69;97.38
28630;BME280;15817;42.130;24.762;2023-02-28T06:54:30;100720.91;;;10.70;97.64
28630;BME280;15817;42.130;24.762;2023-02-28T06:56:57;100733.25;;;10.64;98.10
28630;BME280;15817;42.130;24.762;2023-02-28T06:59:23;100721.63;;;10.51;98.16
28630;BME280;15817;42.130;24.762;2023-02-28T07:01:55;100736.78;;;10.58;98.23
28630;BME280;15817;42.130;24.762;2023-02-28T07:04:26;100730.59;;;10.61;98.13
28630;BME280;15817;42.130;24.762;2023-02-28T07:06:56;100733.22;;;10.59;97.90
28630;BME280;15817;42.130;24.762;2023-02-28T07:09:22;100744.78;;;10.64;98.23
28630;BME280;15817;42.130;24.762;2023-02-28T07:11:48;100745.78;;;10.77;97.62
28630;BME280;15817;42.130;24.762;2023-02-28T07:14:14;100730.66;;;10.71;97.54
28630;BME280;15817;42.130;24.762;2023-02-28T07:16:50;100736.81;;;10.64;97.75
28630;BME280;15817;42.130;24.762;2023-02-28T07:19:16;100741.28;;;10.70;97.57
28630;BME280;15817;42.130;24.762;2023-02-28T07:21:44;100738.66;;;10.74;97.19
28630;BME280;15817;42.130;24.762;2023-02-28T07:24:12;100747.56;;;10.79;97.02
28630;BME280;15817;42.130;24.762;2023-02-28T07:26:44;100748.44;;;10.77;96.83
28630;BME280;15817;42.130;24.762;2023-02-28T07:29:15;100746.66;;;10.76;97.07
28630;BME280;15817;42.130;24.762;2023-02-28T07:31:43;100747.53;;;10.76;97.00
28630;BME280;15817;42.130;24.762;2023-02-28T07:34:19;100751.06;;;10.72;96.79
28630;BME280;15817;42.130;24.762;2023-02-28T07:36:45;100755.50;;;10.75;97.02
28630;BME280;15817;42.130;24.762;2023-02-28T07:39:21;100759.97;;;10.77;96.78
28630;BME280;15817;42.130;24.762;2023-02-28T07:41:56;100760.75;;;10.64;97.51
28630;BME280;15817;42.130;24.762;2023-02-28T07:44:50;100750.09;;;10.63;97.58
28630;BME280;15817;42.130;24.762;2023-02-28T07:47:19;100751.97;;;10.77;96.93
28630;BME280;15817;42.130;24.762;2023-02-28T07:49:50;100749.38;;;10.82;96.63
28630;BME280;15817;42.130;24.762;2023-02-28T07:52:19;100745.75;;;10.72;96.67
28630;BME280;15817;42.130;24.762;2023-02-28T07:54:56;100756.34;;;10.66;97.45
28630;BME280;15817;42.130;24.762;2023-02-28T07:57:30;100754.53;;;10.64;97.44
28630;BME280;15817;42.130;24.762;2023-02-28T08:00:50;100752.75;;;10.60;98.20
28630;BME280;15817;42.130;24.762;2023-02-28T08:03:18;100757.22;;;10.67;97.63
28630;BME280;15817;42.130;24.762;2023-02-28T08:05:51;100758.22;;;10.79;97.17
28630;BME280;15817;42.130;24.762;2023-02-28T08:08:18;100757.28;;;10.71;97.28
28630;BME280;15817;42.130;24.762;2023-02-28T08:10:50;100763.41;;;10.66;97.66
28630;BME280;15817;42.130;24.762;2023-02-28T08:16:03;100769.59;;;10.62;98.31
28630;BME280;15817;42.130;24.762;2023-02-28T08:18:29;100772.09;;;10.43;99.64
28630;BME280;15817;42.130;24.762;2023-02-28T08:20:57;100775.66;;;10.45;99.98
28630;BME280;15817;42.130;24.762;2023-02-28T08:23:24;100775.81;;;10.59;99.30
28630;BME280;15817;42.130;24.762;2023-02-28T08:25:56;100766.94;;;10.63;99.18
28630;BME280;15817;42.130;24.762;2023-02-28T08:28:25;100773.25;;;10.76;98.49
28630;BME280;15817;42.130;24.762;2023-02-28T08:30:56;100767.06;;;10.77;97.92
28630;BME280;15817;42.130;24.762;2023-02-28T08:33:25;100760.84;;;10.78;97.78
28630;BME280;15817;42.130;24.762;2023-02-28T08:35:55;100752.81;;;10.70;98.43
28630;BME280;15817;42.130;24.762;2023-02-28T08:38:22;100747.44;;;10.63;98.56
28630;BME280;15817;42.130;24.762;2023-02-28T08:41:02;100754.44;;;10.53;99.58
28630;BME280;15817;42.130;24.762;2023-02-28T08:43:31;100775.81;;;10.59;99.13
28630;BME280;15817;42.130;24.762;2023-02-28T08:46:13;100760.72;;;10.60;98.96
28630;BME280;15817;42.130;24.762;2023-02-28T08:48:42;100775.00;;;10.69;99.12
28630;BME280;15817;42.130;24.762;2023-02-28T08:51:15;100767.06;;;10.78;98.27
28630;BME280;15817;42.130;24.762;2023-02-28T08:53:58;100756.47;;;10.81;97.41
28630;BME280;15817;42.130;24.762;2023-02-28T08:56:30;100775.13;;;10.87;97.19
28630;BME280;15817;42.130;24.762;2023-02-28T08:59:01;100770.72;;;10.93;97.35
28630;BME280;15817;42.130;24.762;2023-02-28T09:01:30;100781.41;;;10.96;97.22
28630;BME280;15817;42.130;24.762;2023-02-28T09:03:57;100786.72;;;10.97;97.18
28630;BME280;15817;42.130;24.762;2023-02-28T09:06:27;100767.13;;;10.83;97.44
28630;BME280;15817;42.130;24.762;2023-02-28T09:09:06;100775.19;;;10.95;97.31
28630;BME280;15817;42.130;24.762;2023-02-28T09:11:35;100772.53;;;10.98;96.52
28630;BME280;15817;42.130;24.762;2023-02-28T09:14:26;100781.38;;;10.93;96.60
28630;BME280;15817;42.130;24.762;2023-02-28T09:16:52;100776.94;;;10.92;96.64
28630;BME280;15817;42.130;24.762;2023-02-28T09:19:18;100773.41;;;10.97;96.37
28630;BME280;15817;42.130;24.762;2023-02-28T09:21:44;100766.13;;;10.70;97.96
28630;BME280;15817;42.130;24.762;2023-02-28T09:24:12;100765.28;;;10.76;97.98
28630;BME280;15817;42.130;24.762;2023-02-28T09:26:40;100762.66;;;10.80;97.78
28630;BME280;15817;42.130;24.762;2023-02-28T09:29:06;100759.09;;;10.78;97.82
28630;BME280;15817;42.130;24.762;2023-02-28T09:31:42;100768.03;;;10.88;97.61
28630;BME280;15817;42.130;24.762;2023-02-28T09:34:11;100743.97;;;10.74;97.81
28630;BME280;15817;42.130;24.762;2023-02-28T09:36:40;100753.78;;;10.78;97.75
28630;BME280;15817;42.130;24.762;2023-02-28T09:39:14;100752.06;;;10.89;97.46
28630;BME280;15817;42.130;24.762;2023-02-28T09:41:48;100752.97;;;10.92;97.14
28630;BME280;15817;42.130;24.762;2023-02-28T09:44:35;100757.47;;;10.96;96.81
28630;BME280;15817;42.130;24.762;2023-02-28T09:49:41;100750.28;;;10.87;97.21
28630;BME280;15817;42.130;24.762;2023-02-28T09:52:18;100755.66;;;10.98;96.89
28630;BME280;15817;42.130;24.762;2023-02-28T09:54:48;100758.31;;;10.96;96.84
28630;BME280;15817;42.130;24.762;2023-02-28T09:57:31;100756.56;;;10.98;96.85
28630;BME280;15817;42.130;24.762;2023-02-28T10:05:30;100735.34;;;11.06;96.65
28630;BME280;15817;42.130;24.762;2023-02-28T10:08:19;100726.47;;;11.11;96.43
28630;BME280;15817;42.130;24.762;2023-02-28T10:11:06;100726.47;;;11.07;96.38
28630;BME280;15817;42.130;24.762;2023-02-28T10:16:18;100731.75;;;11.02;97.15
28630;BME280;15817;42.130;24.762;2023-02-28T10:18:50;100734.44;;;11.04;96.86
28630;BME280;15817;42.130;24.762;2023-02-28T10:27:22;100725.50;;;10.93;97.86
28630;BME280;15817;42.130;24.762;2023-02-28T10:29:57;100713.91;;;10.89;97.67
28630;BME280;15817;42.130;24.762;2023-02-28T10:32:31;100710.38;;;10.88;97.81
28630;BME280;15817;42.130;24.762;2023-02-28T10:38:09;100703.09;;;10.65;99.28
28630;BME280;15817;42.130;24.762;2023-02-28T10:40:43;100702.31;;;10.76;98.56
28630;BME280;15817;42.130;24.762;2023-02-28T10:46:43;100712.91;;;10.69;98.92
28630;BME280;15817;42.130;24.762;2023-02-28T10:49:20;100713.84;;;10.78;98.75
28630;BME280;15817;42.130;24.762;2023-02-28T10:51:55;100692.47;;;10.65;99.14
28630;BME280;15817;42.130;24.762;2023-02-28T10:58:04;100704.13;;;10.86;98.28
28630;BME280;15817;42.130;24.762;2023-02-28T11:01:08;100689.97;;;10.89;97.76
28630;BME280;15817;42.130;24.762;2023-02-28T11:03:52;100696.16;;;10.86;98.04
28630;BME280;15817;42.130;24.762;2023-02-28T11:07:03;100687.19;;;10.74;98.12
28630;BME280;15817;42.130;24.762;2023-02-28T11:09:39;100693.22;;;10.45;99.84
28630;BME280;15817;42.130;24.762;2023-02-28T11:12:47;100695.03;;;10.49;100.00
28630;BME280;15817;42.130;24.762;2023-02-28T11:15:35;100689.78;;;10.59;99.87
28630;BME280;15817;42.130;24.762;2023-02-28T11:18:51;100686.31;;;10.70;99.44
28630;BME280;15817;42.130;24.762;2023-02-28T11:21:58;100702.31;;;10.78;99.23
28630;BME280;15817;42.130;24.762;2023-02-28T11:24:41;100687.19;;;10.71;99.24
28630;BME280;15817;42.130;24.762;2023-02-28T11:30:41;100681.00;;;10.70;100.00
28630;BME280;15817;42.130;24.762;2023-02-28T11:38:45;100678.19;;;10.53;100.00
28630;BME280;15817;42.130;24.762;2023-02-28T12:19:21;100656.03;;;10.53;100.00
28630;BME280;15817;42.130;24.762;2023-02-28T12:28:23;100662.09;;;10.34;100.00
28630;BME280;15817;42.130;24.762;2023-02-28T12:30:55;100657.69;;;10.34;100.00
28630;BME280;15817;42.130;24.762;2023-02-28T12:33:34;100663.94;;;10.42;100.00
28630;BME280;15817;42.130;24.762;2023-02-28T12:36:15;100660.34;;;10.39;100.00
28630;BME280;15817;42.130;24.762;2023-02-28T12:38:56;100646.94;;;10.21;100.00
28630;BME280;15817;42.130;24.762;2023-02-28T12:44:39;100654.06;;;10.28;100.00
28630;BME280;15817;42.130;24.762;2023-02-28T12:47:17;100647.88;;;10.29;100.00
28630;BME280;15817;42.130;24.762;2023-02-28T12:50:03;100631.00;;;10.22;100.00
28630;BME280;15817;42.130;24.762;2023-02-28T12:58:49;100646.09;;;10.28;100.00
28630;BME280;15817;42.130;24.762;2023-02-28T13:10:47;100632.78;;;10.28;100.00
28630;BME280;15817;42.130;24.762;2023-02-28T13:13:27;100642.63;;;10.36;100.00
28630;BME280;15817;42.130;24.762;2023-02-28T13:16:10;100640.81;;;10.31;100.00
28630;BME280;15817;42.130;24.762;2023-02-28T13:18:42;100654.16;;;10.35;100.00
28630;BME280;15817;42.130;24.762;2023-02-28T13:21:24;100646.13;;;10.32;100.00
28630;BME280;15817;42.130;24.762;2023-02-28T13:29:21;100631.91;;;10.24;100.00
28630;BME280;15817;42.130;24.762;2023-02-28T13:39:49;100630.91;;;10.14;100.00
28630;BME280;15817;42.130;24.762;2023-02-28T13:50:27;100637.28;;;10.32;100.00
28630;BME280;15817;42.130;24.762;2023-02-28T13:58:25;100638.13;;;10.29;100.00
28630;BME280;15817;42.130;24.762;2023-02-28T14:06:52;100627.50;;;10.26;100.00
28630;BME280;15817;42.130;24.762;2023-02-28T14:09:27;100639.91;;;10.30;100.00
28630;BME280;15817;42.130;24.762;2023-02-28T14:18:41;100646.06;;;10.23;100.00
28630;BME280;15817;42.130;24.762;2023-02-28T14:27:45;100652.16;;;10.16;100.00
28630;BME280;15817;42.130;24.762;2023-02-28T14:36:40;100642.41;;;10.13;100.00
28630;BME280;15817;42.130;24.762;2023-02-28T14:39:14;100645.91;;;10.09;100.00
28630;BME280;15817;42.130;24.762;2023-02-28T14:41:51;100641.50;;;10.10;100.00
28630;BME280;15817;42.130;24.762;2023-02-28T14:44:36;100646.81;;;10.10;100.00
28630;BME280;15817;42.130;24.762;2023-02-28T14:47:18;100651.25;;;10.11;100.00
28630;BME280;15817;42.130;24.762;2023-02-28T14:49:57;100653.00;;;10.09;100.00
28630;BME280;15817;42.130;24.762;2023-02-28T14:53:15;100642.31;;;10.01;100.00
28630;BME280;15817;42.130;24.762;2023-02-28T14:56:22;100642.31;;;10.00;100.00
28630;BME280;15817;42.130;24.762;2023-02-28T14:58:57;100643.22;;;10.05;100.00
28630;BME280;15817;42.130;24.762;2023-02-28T15:01:27;100650.31;;;10.03;100.00
28630;BME280;15817;42.130;24.762;2023-02-28T15:04:04;100652.00;;;9.96;100.00
28630;BME280;15817;42.130;24.762;2023-02-28T15:06:40;100653.75;;;9.94;100.00
28630;BME280;15817;42.130;24.762;2023-02-28T15:09:08;100662.63;;;9.96;100.00
28630;BME280;15817;42.130;24.762;2023-02-28T15:11:35;100667.06;;;9.96;100.00
28630;BME280;15817;42.130;24.762;2023-02-28T15:14:04;100677.69;;;9.96;100.00
28630;BME280;15817;42.130;24.762;2023-02-28T15:16:37;100664.38;;;9.91;100.00
28630;BME280;15817;42.130;24.762;2023-02-28T15:19:21;100669.69;;;9.91;100.00
28630;BME280;15817;42.130;24.762;2023-02-28T15:22:00;100687.44;;;9.97;100.00
28630;BME280;15817;42.130;24.762;2023-02-28T15:27:27;100685.63;;;9.91;100.00
28630;BME280;15817;42.130;24.762;2023-02-28T15:29:59;100685.72;;;10.00;100.00
28630;BME280;15817;42.130;24.762;2023-02-28T15:32:37;100681.22;;;9.92;100.00
28630;BME280;15817;42.130;24.762;2023-02-28T15:35:40;100682.09;;;9.95;100.00
28630;BME280;15817;42.130;24.762;2023-02-28T15:38:27;100675.91;;;9.92;100.00
28630;BME280;15817;42.130;24.762;2023-02-28T15:40:58;100678.56;;;9.92;100.00
28630;BME280;15817;42.130;24.762;2023-02-28T15:43:40;100678.44;;;9.84;100.00
28630;BME280;15817;42.130;24.762;2023-02-28T15:46:12;100674.75;;;9.70;100.00
28630;BME280;15817;42.130;24.762;2023-02-28T15:48:54;100695.91;;;9.61;100.00
28630;BME280;15817;42.130;24.762;2023-02-28T15:51:24;100672.78;;;9.51;100.00
28630;BME280;15817;42.130;24.762;2023-02-28T15:54:01;100686.91;;;9.48;100.00
28630;BME280;15817;42.130;24.762;2023-02-28T15:56:46;100693.94;;;9.41;100.00
28630;BME280;15817;42.130;24.762;2023-02-28T15:59:21;100684.25;;;9.48;100.00
28630;BME280;15817;42.130;24.762;2023-02-28T16:02:14;100693.00;;;9.38;100.00
28630;BME280;15817;42.130;24.762;2023-02-28T16:08:14;100688.53;;;9.34;100.00
28630;BME280;15817;42.130;24.762;2023-02-28T16:11:16;100694.81;;;9.40;100.00
28630;BME280;15817;42.130;24.762;2023-02-28T16:13:46;100709.84;;;9.40;100.00
28630;BME280;15817;42.130;24.762;2023-02-28T16:22:51;100696.47;;;9.32;100.00
28630;BME280;15817;42.130;24.762;2023-02-28T16:25:42;100703.47;;;9.27;100.00
28630;BME280;15817;42.130;24.762;2023-02-28T16:28:54;100716.00;;;9.37;100.00
28630;BME280;15817;42.130;24.762;2023-02-28T16:31:23;100707.13;;;9.37;100.00
28630;BME280;15817;42.130;24.762;2023-02-28T16:33:54;100703.50;;;9.29;100.00
28630;BME280;15817;42.130;24.762;2023-02-28T16:36:40;100715.91;;;9.30;100.00
28630;BME280;15817;42.130;24.762;2023-02-28T16:39:08;100711.22;;;9.12;100.00
28630;BME280;15817;42.130;24.762;2023-02-28T16:41:50;100718.44;;;9.19;100.00
28630;BME280;15817;42.130;24.762;2023-02-28T16:44:32;100730.06;;;9.30;100.00
28630;BME280;15817;42.130;24.762;2023-02-28T16:47:27;100720.25;;;9.22;100.00